Le Lamentin, Martinique

3:25 PM AST on September 23, 2014 (GMT -0400)
Le Lamentin | Change Station
CLOSE
Current Station
Airport
Location: Le Lamentin,
Elevation: 13 ft
Nearby Weather Stations

Elev 13 ft 14.59 °N, 61.00 °W | Updated 25 minutes ago

Mostly Cloudy
Mostly Cloudy
88 °F
Feels Like 98 °F
N
8
Wind Variable Wind from ESE

Today
High -- | Low -- °F
--% Chance of Precip.
Yesterday
High -- | Low -- °F
Precip. -- in
5:53 AM 5:59 PM
Waning Crescent, 0% visible
Pressure 29.89 in
Visibility 6.2 miles
Clouds Mostly Cloudy 3100 ft
Mostly Cloudy 3800 ft
Heat Index 98 °F
Dew Point 75 °F
Humidity 66%
Rainfall 0.00 in
Snow Depth Not available.
UV 4 out of 12
Pollen Not available.
Air Quality Not available.
Flu Activity Not available.
METAR TFFF 231900Z AUTO 11007KT 080V140 9999 BKN031/// BKN038/// ///TCU 31/24 Q1012

More Conditions Fewer Conditions

Pressure 29.89 in
Visibility 6.2 miles
Clouds Mostly Cloudy 3100 ft
Mostly Cloudy 3800 ft
Heat Index 98 °F
Dew Point 75 °F
Humidity 66%
Rainfall 0.00 in
Snow Depth Not available.
UV 4 out of 12
Pollen Not available.
Air Quality Not available.
Flu Activity Not available.
METAR TFFF 231900Z AUTO 11007KT 080V140 9999 BKN031/// BKN038/// ///TCU 31/24 Q1012

More Conditions Fewer Conditions

10-Day Weather Forecast

Almanac

Astronomy

Sep. 23, 2014 Rise Set
Actual Time 5:53 AM AST 5:59 PM AST
Civil Twilight 5:31 AM AST 6:20 PM AST
Nautical Twilight 5:06 AM AST 6:45 PM AST
Astronomical Twilight 4:42 AM AST 7:10 PM AST
Moon 5:15 AM AST 5:37 PM AST
Length of Visible Light 12h 48m
Length of Day
12h 06m
Tomorrow will be 0m 48s shorter.
Waning Crescent, 0% of the Moon is Illuminated
Today
Waning Crescent
Sep 24
New
Oct 1
First Quarter
Oct 8
Full
Oct 15
Last Quarter

Today's Extremes

Country Highs Country Lows

Community

WunderPhotos

Upload Photos

1,755,784 photos uploaded!

Nearby

Snow Depth

Not available.

Earthquake Activity

City Distance Mag. Time & Date
No recent earthquake activity has been reported nearby.
Minimum magnitude displayed is 2.5.

Coastal Water Temperatures

Place Temperature
No Stations Reporting

Nearby Weather Stations